Time;durP1;ratioP1;P1;durP2;ratioP2;P2;SDS_P1;SDS_P2;PMS_P1;PMS_P2;Temp;Humidity;BMP_temperature;BMP_pressure;BME280_temperature;BME280_humidity;BME280_pressure;Samples;Min_cycle;Max_cycle;Signal;HPM_P1;HPM_P2
2023/07/12 00:00:27;;;;;;;1.08;0.80;;;;;25.00;100737.00;;;;5088515;28;20336;-79
2023/07/12 00:02:55;;;;;;;1.65;1.20;;;;;25.10;100739.00;;;;5085702;28;20200;-79
2023/07/12 00:05:23;;;;;;;1.67;1.15;;;;;25.00;100737.00;;;;5078207;28;20209;-79
2023/07/12 00:07:50;;;;;;;2.28;1.23;;;;;25.00;100738.00;;;;5085925;28;20674;-80
2023/07/12 00:10:21;;;;;;;2.00;1.10;;;;;25.00;100739.00;;;;5084118;28;20202;-79
2023/07/12 00:12:51;;;;;;;2.28;1.38;;;;;25.00;100741.00;;;;5087587;28;20220;-79
2023/07/12 00:15:21;;;;;;;1.65;1.20;;;;;25.00;100724.00;;;;5087932;28;20207;-79
2023/07/12 00:17:48;;;;;;;2.55;1.08;;;;;25.00;100721.00;;;;5091563;28;20699;-79
2023/07/12 00:20:27;;;;;;;5.93;1.15;;;;;24.90;100710.00;;;;5089128;28;20229;-79
2023/07/12 00:22:55;;;;;;;1.10;0.90;;;;;24.90;100721.00;;;;5091589;28;20598;-79
2023/07/12 00:25:24;;;;;;;1.75;1.10;;;;;24.90;100730.00;;;;5090150;28;20198;-79
2023/07/12 00:27:54;;;;;;;2.55;1.20;;;;;24.90;100731.00;;;;5075801;28;20198;-80
2023/07/12 00:30:23;;;;;;;4.35;1.23;;;;;24.80;100735.00;;;;5089601;28;20226;-79
2023/07/12 00:32:52;;;;;;;2.28;1.23;;;;;24.80;100744.00;;;;5098204;28;20283;-79
2023/07/12 00:35:22;;;;;;;2.85;1.10;;;;;24.80;100736.00;;;;5090405;28;20205;-79
2023/07/12 00:37:52;;;;;;;1.10;1.00;;;;;24.80;100735.00;;;;5089464;28;20194;-79
2023/07/12 00:40:54;;;;;;;2.17;1.20;;;;;24.60;100724.00;;;;5087089;28;20222;-79
2023/07/12 00:43:30;;;;;;;1.80;0.80;;;;;24.70;100735.00;;;;5071204;28;20209;-80
2023/07/12 00:46:00;;;;;;;2.97;1.25;;;;;24.70;100733.00;;;;5080345;28;20576;-79
2023/07/12 00:48:27;;;;;;;1.70;1.05;;;;;24.70;100734.00;;;;5085271;28;20996;-79
2023/07/12 00:50:55;;;;;;;4.95;1.50;;;;;24.70;100729.00;;;;5089006;28;20205;-79
2023/07/12 00:53:24;;;;;;;3.22;1.40;;;;;24.70;100738.00;;;;5090198;28;20198;-79
2023/07/12 00:56:07;;;;;;;3.10;1.13;;;;;24.50;100738.00;;;;5089622;28;20198;-79
2023/07/12 00:58:40;;;;;;;2.00;1.38;;;;;24.60;100740.00;;;;5087161;28;21171;-79
2023/07/12 01:01:09;;;;;;;2.38;1.15;;;;;24.60;100742.00;;;;5084851;28;20225;-79
2023/07/12 01:03:39;;;;;;;3.30;1.52;;;;;24.60;100745.00;;;;5089119;28;20194;-79
2023/07/12 01:06:09;;;;;;;3.65;1.63;;;;;24.50;100757.00;;;;5090941;28;20206;-79
2023/07/12 01:08:41;;;;;;;2.95;1.40;;;;;24.50;100804.00;;;;5111795;28;20724;-79
2023/07/12 01:11:10;;;;;;;2.00;1.25;;;;;24.50;100844.00;;;;5086870;28;20572;-79
2023/07/12 01:13:42;;;;;;;1.80;1.15;;;;;24.40;100844.00;;;;5089247;28;20206;-79
2023/07/12 01:16:11;;;;;;;3.33;1.05;;;;;24.40;100830.00;;;;5089687;28;20210;-78
2023/07/12 01:18:40;;;;;;;2.58;1.15;;;;;24.40;100801.00;;;;5090206;28;20221;-77
2023/07/12 01:21:11;;;;;;;2.85;0.95;;;;;24.30;100787.00;;;;5089101;28;20218;-77
2023/07/12 01:23:40;;;;;;;3.13;0.88;;;;;24.30;100795.00;;;;5095989;28;20213;-76
2023/07/12 01:26:24;;;;;;;2.63;1.17;;;;;24.10;100802.00;;;;5110613;28;20194;-76
2023/07/12 01:28:56;;;;;;;5.72;0.95;;;;;24.20;100802.00;;;;5100737;27;20624;-76
2023/07/12 01:31:25;;;;;;;2.10;1.20;;;;;24.20;100787.00;;;;5084378;28;20203;-76
2023/07/12 01:33:53;;;;;;;5.57;1.08;;;;;24.20;100778.00;;;;5087080;28;20690;-76
2023/07/12 01:36:23;;;;;;;2.63;1.23;;;;;24.20;100775.00;;;;5089304;28;20645;-76
2023/07/12 01:38:52;;;;;;;3.28;0.93;;;;;24.10;100767.00;;;;5088436;28;20202;-76
2023/07/12 01:41:19;;;;;;;5.13;1.30;;;;;24.20;100766.00;;;;5086215;28;20226;-75
2023/07/12 01:43:47;;;;;;;4.72;0.90;;;;;24.10;100754.00;;;;5085245;28;20191;-76
2023/07/12 01:46:15;;;;;;;3.45;1.13;;;;;24.10;100753.00;;;;5084078;28;20198;-76
2023/07/12 01:48:42;;;;;;;3.28;1.25;;;;;24.10;100728.00;;;;5086406;28;20205;-76
2023/07/12 01:51:10;;;;;;;2.95;1.42;;;;;24.10;100719.00;;;;5086746;28;20194;-76
2023/07/12 01:53:39;;;;;;;3.30;1.38;;;;;24.10;100743.00;;;;5088995;28;20578;-76
2023/07/12 01:56:06;;;;;;;2.47;1.40;;;;;24.10;100735.00;;;;5088314;28;20206;-75
2023/07/12 01:58:34;;;;;;;5.22;1.63;;;;;24.10;100734.00;;;;5090701;28;20652;-76
2023/07/12 02:01:01;;;;;;;3.78;1.27;;;;;24.10;100720.00;;;;5086171;28;20229;-76
2023/07/12 02:03:29;;;;;;;3.58;1.42;;;;;24.10;100729.00;;;;5083175;28;20198;-76
2023/07/12 02:05:57;;;;;;;2.92;1.05;;;;;24.10;100696.00;;;;5087049;28;20199;-76
2023/07/12 02:08:24;;;;;;;3.58;1.70;;;;;24.10;100700.00;;;;5089122;28;20194;-76
2023/07/12 02:10:53;;;;;;;2.70;1.23;;;;;24.10;100678.00;;;;5088913;28;20202;-77
2023/07/12 02:13:22;;;;;;;7.57;1.15;;;;;24.10;100671.00;;;;5087915;28;20680;-77
2023/07/12 02:15:49;;;;;;;2.97;1.00;;;;;24.10;100696.00;;;;5083580;28;20195;-76
2023/07/12 02:18:17;;;;;;;4.68;1.30;;;;;24.10;100682.00;;;;5083853;28;20221;-77
2023/07/12 02:20:45;;;;;;;4.75;1.60;;;;;24.10;100646.00;;;;5088134;28;20228;-77
2023/07/12 02:23:12;;;;;;;4.10;1.70;;;;;24.10;100684.00;;;;5088778;28;20190;-77
2023/07/12 02:25:41;;;;;;;1.80;1.10;;;;;24.10;100684.00;;;;5087931;28;20194;-77
2023/07/12 02:28:09;;;;;;;2.53;1.33;;;;;24.10;100700.00;;;;5087379;28;20741;-78
2023/07/12 02:30:38;;;;;;;2.00;1.20;;;;;24.10;100701.00;;;;5089294;28;20820;-77
2023/07/12 02:33:06;;;;;;;2.45;1.50;;;;;24.10;100687.00;;;;5094470;28;20303;-77
2023/07/12 02:35:33;;;;;;;5.72;1.70;;;;;24.10;100685.00;;;;5088224;28;20226;-77
2023/07/12 02:38:02;;;;;;;1.65;0.93;;;;;24.00;100691.00;;;;5089750;28;20564;-77
2023/07/12 02:40:29;;;;;;;3.30;1.42;;;;;24.00;100708.00;;;;5089093;28;20230;-77
2023/07/12 02:42:57;;;;;;;3.55;1.38;;;;;24.00;100700.00;;;;5088303;28;20194;-77
2023/07/12 02:45:25;;;;;;;3.63;1.60;;;;;24.00;100703.00;;;;5087492;28;20205;-78
2023/07/12 02:47:53;;;;;;;4.32;1.50;;;;;24.00;100706.00;;;;5086291;28;20221;-77
2023/07/12 02:50:21;;;;;;;2.50;1.20;;;;;24.00;100712.00;;;;5089424;28;20206;-77
2023/07/12 02:52:50;;;;;;;2.67;1.42;;;;;24.00;100719.00;;;;5086490;28;20656;-77
2023/07/12 02:55:18;;;;;;;1.63;0.95;;;;;24.00;100713.00;;;;5088605;28;20290;-77
2023/07/12 02:57:45;;;;;;;2.55;1.25;;;;;23.90;100727.00;;;;5087425;28;20601;-77
2023/07/12 03:00:13;;;;;;;3.67;1.30;;;;;23.90;100731.00;;;;5088128;28;20195;-78
2023/07/12 03:02:42;;;;;;;4.97;1.60;;;;;23.90;100738.00;;;;5082420;28;20209;-78
2023/07/12 03:05:09;;;;;;;3.08;1.48;;;;;23.90;100746.00;;;;5076542;28;20202;-77
2023/07/12 03:07:38;;;;;;;3.47;1.38;;;;;23.90;100751.00;;;;5086938;28;20568;-78
2023/07/12 03:10:06;;;;;;;6.18;1.85;;;;;23.90;100751.00;;;;5089169;28;20202;-78
2023/07/12 03:12:33;;;;;;;5.68;1.73;;;;;23.80;100740.00;;;;5088239;28;20208;-78
2023/07/12 03:15:00;;;;;;;5.90;2.10;;;;;23.80;100736.00;;;;5088330;28;20653;-78
2023/07/12 03:17:29;;;;;;;4.10;1.95;;;;;23.80;100735.00;;;;5075177;28;20215;-78
2023/07/12 03:19:58;;;;;;;4.90;1.92;;;;;23.80;100733.00;;;;5087717;28;20202;-77
2023/07/12 03:22:25;;;;;;;2.70;1.77;;;;;23.80;100730.00;;;;5092784;28;20237;-77
2023/07/12 03:24:53;;;;;;;2.63;1.85;;;;;23.70;100734.00;;;;5088578;28;20205;-78
2023/07/12 03:27:20;;;;;;;5.45;2.55;;;;;23.70;100739.00;;;;5088541;28;20206;-78
2023/07/12 03:29:48;;;;;;;3.97;1.77;;;;;23.70;100739.00;;;;5089030;28;20199;-78
2023/07/12 03:32:15;;;;;;;5.90;2.28;;;;;23.70;100741.00;;;;5088347;28;20202;-77
2023/07/12 03:34:42;;;;;;;5.28;2.25;;;;;23.60;100743.00;;;;5086338;28;20233;-78
2023/07/12 03:37:12;;;;;;;4.15;2.53;;;;;23.60;100739.00;;;;5085209;28;20194;-78
2023/07/12 03:39:40;;;;;;;3.70;2.20;;;;;23.60;100741.00;;;;5088999;28;20194;-77
2023/07/12 03:42:08;;;;;;;4.63;2.65;;;;;23.50;100745.00;;;;5088798;28;20230;-78
2023/07/12 03:44:35;;;;;;;4.55;2.70;;;;;23.50;100746.00;;;;5080380;28;20202;-78
2023/07/12 03:47:02;;;;;;;3.53;2.70;;;;;23.50;100751.00;;;;5087051;28;20202;-78
2023/07/12 03:49:30;;;;;;;6.30;2.75;;;;;23.50;100750.00;;;;5085373;28;20198;-78
2023/07/12 03:51:57;;;;;;;5.03;3.22;;;;;23.50;100753.00;;;;5087167;28;20234;-78
2023/07/12 03:54:26;;;;;;;5.72;2.72;;;;;23.50;100757.00;;;;5086907;28;20202;-78
2023/07/12 03:56:53;;;;;;;3.63;2.25;;;;;23.50;100754.00;;;;5088698;28;20202;-77
2023/07/12 03:59:20;;;;;;;4.90;2.38;;;;;23.50;100752.00;;;;5086154;28;20205;-78
2023/07/12 04:01:47;;;;;;;5.40;2.10;;;;;23.40;100752.00;;;;5074323;28;20809;-78
2023/07/12 04:04:15;;;;;;;5.28;2.55;;;;;23.40;100751.00;;;;5085794;28;20202;-78
2023/07/12 04:06:42;;;;;;;5.10;2.03;;;;;23.40;100758.00;;;;5086463;28;20697;-78
2023/07/12 04:09:10;;;;;;;4.32;2.67;;;;;23.40;100756.00;;;;5081658;28;20191;-78
2023/07/12 04:11:41;;;;;;;2.53;1.77;;;;;23.40;100753.00;;;;5086919;28;20853;-78
2023/07/12 04:14:08;;;;;;;4.30;2.55;;;;;23.40;100754.00;;;;5086605;28;20284;-78
2023/07/12 04:16:36;;;;;;;2.90;2.40;;;;;23.40;100752.00;;;;5086053;28;20194;-77
2023/07/12 04:19:03;;;;;;;3.78;2.70;;;;;23.40;100759.00;;;;5086487;28;20218;-77
2023/07/12 04:21:30;;;;;;;4.40;2.25;;;;;23.30;100755.00;;;;5085936;28;20461;-77
2023/07/12 04:23:58;;;;;;;5.80;2.45;;;;;23.30;100761.00;;;;5084554;28;20201;-78
2023/07/12 04:26:25;;;;;;;6.43;2.53;;;;;23.30;100757.00;;;;5086454;28;20205;-78
2023/07/12 04:28:54;;;;;;;3.83;2.28;;;;;23.20;100762.00;;;;5085288;28;20197;-77
2023/07/12 04:31:22;;;;;;;5.30;2.60;;;;;23.20;100761.00;;;;5097857;28;20744;-77
2023/07/12 04:33:49;;;;;;;5.57;3.05;;;;;23.20;100773.00;;;;5086333;28;20596;-78
2023/07/12 04:36:18;;;;;;;6.68;2.88;;;;;23.20;100775.00;;;;5087016;28;20210;-77
2023/07/12 04:38:46;;;;;;;4.53;3.08;;;;;23.20;100779.00;;;;5083923;28;20857;-78
2023/07/12 04:41:14;;;;;;;5.72;2.90;;;;;23.20;100768.00;;;;5078511;28;20231;-78
2023/07/12 04:43:41;;;;;;;5.60;3.83;;;;;23.20;100769.00;;;;5079754;28;20202;-78
2023/07/12 04:46:10;;;;;;;4.65;3.17;;;;;23.10;100772.00;;;;5087155;28;20575;-78
2023/07/12 04:48:38;;;;;;;4.85;3.65;;;;;23.20;100767.00;;;;5102046;28;20906;-78
2023/07/12 04:51:06;;;;;;;4.53;3.15;;;;;23.20;100773.00;;;;5087576;28;20198;-77
2023/07/12 04:53:34;;;;;;;10.45;4.15;;;;;23.20;100776.00;;;;5084719;28;20206;-78
2023/07/12 04:56:02;;;;;;;6.28;3.83;;;;;23.20;100785.00;;;;5076631;28;20205;-77
2023/07/12 04:58:29;;;;;;;5.43;3.50;;;;;23.20;100778.00;;;;5083971;28;20199;-78
2023/07/12 05:00:58;;;;;;;7.80;4.40;;;;;23.20;100793.00;;;;5086962;28;20295;-77
2023/07/12 05:03:26;;;;;;;5.32;3.65;;;;;23.20;100800.00;;;;5083578;28;20199;-77
2023/07/12 05:05:58;;;;;;;5.68;3.63;;;;;23.10;100797.00;;;;5089032;28;20559;-77
2023/07/12 05:08:25;;;;;;;6.53;3.60;;;;;23.20;100805.00;;;;5091453;28;20217;-77
2023/07/12 05:10:58;;;;;;;5.43;3.50;;;;;23.20;100803.00;;;;5088984;28;20190;-77
2023/07/12 05:13:25;;;;;;;5.63;3.63;;;;;23.10;100798.00;;;;5087898;28;20206;-78
2023/07/12 05:15:53;;;;;;;5.65;3.20;;;;;23.10;100794.00;;;;5086272;28;20199;-77
2023/07/12 05:18:21;;;;;;;6.82;3.85;;;;;23.10;100804.00;;;;5090798;28;20220;-77
2023/07/12 05:20:52;;;;;;;5.22;3.78;;;;;23.10;100797.00;;;;5088293;28;20786;-77
2023/07/12 05:23:19;;;;;;;5.85;3.72;;;;;23.10;100800.00;;;;5090466;28;20200;-76
2023/07/12 05:25:50;;;;;;;5.00;3.03;;;;;23.10;100804.00;;;;5088920;28;20198;-77
2023/07/12 05:28:17;;;;;;;5.95;3.53;;;;;23.10;100805.00;;;;5086892;28;20223;-78
2023/07/12 05:30:44;;;;;;;6.35;3.30;;;;;23.10;100813.00;;;;5086696;28;20205;-77
2023/07/12 05:33:12;;;;;;;6.63;3.45;;;;;23.10;100806.00;;;;5090725;28;20238;-78
2023/07/12 05:35:39;;;;;;;8.70;3.88;;;;;23.10;100808.00;;;;5089663;28;20194;-77
2023/07/12 05:38:08;;;;;;;6.68;3.75;;;;;23.10;100811.00;;;;5088070;28;20194;-77
2023/07/12 05:40:35;;;;;;;5.38;3.83;;;;;23.10;100806.00;;;;5088481;28;20786;-77
2023/07/12 05:43:03;;;;;;;5.82;3.58;;;;;23.10;100809.00;;;;5088559;28;20225;-79
2023/07/12 05:45:30;;;;;;;8.57;3.53;;;;;23.20;100813.00;;;;5088215;28;20229;-77
2023/07/12 05:47:57;;;;;;;5.63;3.58;;;;;23.20;100823.00;;;;5089646;28;20288;-78
2023/07/12 05:50:26;;;;;;;6.70;3.20;;;;;23.20;100827.00;;;;5080579;28;20202;-76
2023/07/12 05:52:53;;;;;;;6.30;3.05;;;;;23.20;100821.00;;;;5074651;28;20191;-76
2023/07/12 05:55:22;;;;;;;11.65;3.78;;;;;23.20;100822.00;;;;5084318;28;21076;-76
2023/07/12 05:57:49;;;;;;;4.65;3.42;;;;;23.20;100821.00;;;;5081474;28;20202;-77
2023/07/12 06:00:18;;;;;;;5.30;2.72;;;;;23.20;100833.00;;;;5082580;28;20202;-77
2023/07/12 06:02:45;;;;;;;3.67;3.00;;;;;23.20;100834.00;;;;5086275;28;20219;-77
2023/07/12 06:05:13;;;;;;;5.72;2.97;;;;;23.20;100824.00;;;;5088692;28;20287;-77
2023/07/12 06:07:41;;;;;;;5.70;3.00;;;;;23.20;100834.00;;;;5089863;28;20566;-77
2023/07/12 06:10:09;;;;;;;5.50;3.17;;;;;23.20;100815.00;;;;5089757;28;20263;-78
2023/07/12 06:12:37;;;;;;;5.95;3.05;;;;;23.20;100828.00;;;;5089365;28;20203;-77
2023/07/12 06:15:06;;;;;;;4.28;3.42;;;;;23.20;100827.00;;;;5088252;28;20194;-77
2023/07/12 06:17:33;;;;;;;6.30;3.35;;;;;23.20;100832.00;;;;5073477;28;20219;-77
2023/07/12 06:20:00;;;;;;;6.18;3.25;;;;;23.20;100832.00;;;;5069763;28;20210;-78
2023/07/12 06:22:28;;;;;;;3.67;3.20;;;;;23.20;100829.00;;;;5068859;28;20223;-77
2023/07/12 06:24:56;;;;;;;7.65;3.28;;;;;23.20;100834.00;;;;5069760;28;20207;-78
2023/07/12 06:27:23;;;;;;;7.53;3.58;;;;;23.20;100827.00;;;;5070205;28;20236;-77
2023/07/12 06:29:52;;;;;;;5.07;3.25;;;;;23.20;100820.00;;;;5077661;28;20202;-78
2023/07/12 06:32:19;;;;;;;4.60;3.00;;;;;23.30;100825.00;;;;5087575;28;20198;-78
2023/07/12 06:34:47;;;;;;;3.72;2.58;;;;;23.30;100830.00;;;;5088134;28;20229;-77
2023/07/12 06:37:14;;;;;;;14.07;3.45;;;;;23.40;100836.00;;;;5089415;28;20210;-78
2023/07/12 06:39:41;;;;;;;4.45;2.88;;;;;23.40;100838.00;;;;5090070;28;20198;-78
2023/07/12 06:42:09;;;;;;;5.35;2.95;;;;;23.40;100848.00;;;;5088693;28;20215;-77
2023/07/12 06:44:36;;;;;;;4.35;2.53;;;;;23.40;100847.00;;;;5074819;28;20555;-78
2023/07/12 06:47:05;;;;;;;6.88;2.50;;;;;23.40;100844.00;;;;5084720;28;20195;-78
2023/07/12 06:49:33;;;;;;;6.07;2.70;;;;;23.50;100856.00;;;;5089164;28;20210;-78
2023/07/12 06:52:02;;;;;;;4.07;2.53;;;;;23.50;100859.00;;;;5089149;28;20190;-78
2023/07/12 06:54:29;;;;;;;5.80;2.58;;;;;23.50;100854.00;;;;5088666;28;20191;-79
2023/07/12 06:56:57;;;;;;;3.38;2.60;;;;;23.50;100851.00;;;;5089112;28;20248;-78
2023/07/12 06:59:25;;;;;;;3.78;2.30;;;;;23.60;100854.00;;;;5089118;28;20814;-78
2023/07/12 07:01:52;;;;;;;6.28;2.42;;;;;23.60;100858.00;;;;5087154;28;20228;-78
2023/07/12 07:04:21;;;;;;;6.00;3.05;;;;;23.60;100855.00;;;;5099390;28;20205;-79
2023/07/12 07:06:48;;;;;;;4.18;2.50;;;;;23.60;100851.00;;;;5108293;28;20205;-78
2023/07/12 07:09:15;;;;;;;5.75;2.83;;;;;23.70;100861.00;;;;5109199;28;20193;-79
2023/07/12 07:11:43;;;;;;;3.67;2.42;;;;;23.70;100857.00;;;;5109081;28;20625;-78
2023/07/12 07:14:10;;;;;;;8.32;2.70;;;;;23.80;100857.00;;;;5105550;28;20198;-78
2023/07/12 07:16:37;;;;;;;4.28;2.30;;;;;23.90;100865.00;;;;5088745;28;20205;-78
2023/07/12 07:19:05;;;;;;;4.43;2.50;;;;;23.90;100867.00;;;;5086709;28;20215;-78
2023/07/12 07:21:34;;;;;;;5.60;2.72;;;;;24.00;100873.00;;;;5100108;28;20193;-78
2023/07/12 07:24:02;;;;;;;3.78;2.72;;;;;24.00;100879.00;;;;5108908;28;20204;-78
2023/07/12 07:26:29;;;;;;;6.22;2.40;;;;;24.00;100889.00;;;;5108967;28;20193;-79
2023/07/12 07:28:57;;;;;;;4.07;2.35;;;;;24.10;100886.00;;;;5104823;28;20277;-78
2023/07/12 07:31:24;;;;;;;4.97;2.58;;;;;24.10;100881.00;;;;5088658;28;20212;-78
2023/07/12 07:33:51;;;;;;;8.55;3.10;;;;;24.10;100890.00;;;;5088545;28;20577;-77
2023/07/12 07:36:18;;;;;;;5.65;2.33;;;;;24.10;100893.00;;;;5088025;28;20676;-78
2023/07/12 07:38:48;;;;;;;6.80;2.58;;;;;24.20;100896.00;;;;5101476;28;20205;-77
2023/07/12 07:41:16;;;;;;;5.13;2.45;;;;;24.20;100908.00;;;;5088214;28;20248;-78
2023/07/12 07:43:45;;;;;;;3.72;2.58;;;;;24.20;100908.00;;;;5088273;28;20229;-78
2023/07/12 07:46:13;;;;;;;5.05;2.20;;;;;24.20;100908.00;;;;5086940;28;20241;-78
2023/07/12 07:48:40;;;;;;;6.00;2.60;;;;;24.20;100921.00;;;;5088764;28;20190;-78
2023/07/12 07:51:09;;;;;;;4.22;2.13;;;;;24.20;100908.00;;;;5087669;28;20194;-78
2023/07/12 07:53:36;;;;;;;5.43;2.22;;;;;24.30;100921.00;;;;5086778;28;20217;-77
2023/07/12 07:56:06;;;;;;;8.77;2.03;;;;;24.40;100916.00;;;;5105672;28;20205;-79
2023/07/12 07:58:33;;;;;;;3.78;1.75;;;;;24.50;100931.00;;;;5108082;28;20219;-78
2023/07/12 08:01:00;;;;;;;6.07;1.85;;;;;24.50;100926.00;;;;5103543;28;20191;-79
2023/07/12 08:03:28;;;;;;;4.35;1.90;;;;;24.50;100929.00;;;;5088739;28;20222;-78
2023/07/12 08:06:02;;;;;;;6.47;2.45;;;;;24.50;100927.00;;;;5088544;28;20682;-78
2023/07/12 08:08:29;;;;;;;5.63;2.22;;;;;24.60;100919.00;;;;5071857;28;20199;-78
2023/07/12 08:10:57;;;;;;;4.90;1.88;;;;;24.70;100927.00;;;;5087832;28;20206;-78
2023/07/12 08:13:26;;;;;;;5.47;1.90;;;;;24.70;100931.00;;;;5094956;28;20244;-78
2023/07/12 08:15:56;;;;;;;5.88;2.17;;;;;24.70;100938.00;;;;5082622;28;20628;-78
2023/07/12 08:18:24;;;;;;;4.72;1.60;;;;;24.70;100939.00;;;;5082722;28;20209;-77
2023/07/12 08:20:54;;;;;;;6.65;2.28;;;;;24.70;100934.00;;;;5088572;28;20206;-78
2023/07/12 08:23:24;;;;;;;8.75;2.25;;;;;24.80;100936.00;;;;5085628;28;20228;-76
2023/07/12 08:25:55;;;;;;;6.15;1.67;;;;;24.80;100939.00;;;;5096988;28;20835;-78
2023/07/12 08:28:22;;;;;;;5.60;2.30;;;;;24.90;100944.00;;;;5088114;28;20197;-78
2023/07/12 08:30:51;;;;;;;3.55;1.92;;;;;24.90;100941.00;;;;5085191;28;20251;-77
2023/07/12 08:33:19;;;;;;;8.50;2.55;;;;;25.00;100940.00;;;;5083591;28;20386;-79
2023/07/12 08:35:47;;;;;;;4.93;1.92;;;;;25.00;100946.00;;;;5088534;28;20201;-79
2023/07/12 08:38:15;;;;;;;3.55;2.38;;;;;25.00;100947.00;;;;5084621;28;20709;-78
2023/07/12 08:40:46;;;;;;;5.22;2.58;;;;;25.00;100949.00;;;;5087859;28;20201;-79
2023/07/12 08:43:16;;;;;;;6.70;1.92;;;;;25.10;100935.00;;;;5086131;28;20222;-79
2023/07/12 08:45:46;;;;;;;3.97;1.63;;;;;25.10;100938.00;;;;5094587;28;20201;-79
2023/07/12 08:48:18;;;;;;;5.63;1.85;;;;;25.20;100930.00;;;;5098317;28;20190;-79
2023/07/12 08:50:47;;;;;;;4.40;2.00;;;;;25.30;100945.00;;;;5091813;28;20194;-80
2023/07/12 08:53:19;;;;;;;6.43;2.10;;;;;25.30;100945.00;;;;5090057;28;20202;-80
2023/07/12 08:55:47;;;;;;;5.50;2.00;;;;;25.40;100950.00;;;;5089106;28;20675;-80
2023/07/12 08:58:20;;;;;;;2.72;1.80;;;;;25.40;100959.00;;;;5086650;28;20216;-79
2023/07/12 09:00:53;;;;;;;4.07;2.00;;;;;25.40;100957.00;;;;5085381;28;20198;-80
2023/07/12 09:03:21;;;;;;;4.35;1.98;;;;;25.40;100961.00;;;;5088610;28;20229;-81
2023/07/12 09:05:51;;;;;;;4.28;2.08;;;;;25.50;100964.00;;;;5092252;28;20202;-80
2023/07/12 09:08:21;;;;;;;5.85;2.25;;;;;25.60;100962.00;;;;5089427;28;20572;-81
2023/07/12 09:10:51;;;;;;;6.18;2.00;;;;;25.60;100970.00;;;;5087824;28;20198;-78
2023/07/12 09:13:19;;;;;;;3.45;2.17;;;;;25.70;100963.00;;;;5086774;28;20221;-79
2023/07/12 09:15:52;;;;;;;4.82;1.95;;;;;25.60;100970.00;;;;5090933;28;20198;-79
2023/07/12 09:18:39;;;;;;;5.55;2.15;;;;;25.70;100975.00;;;;5090119;28;20222;-78
2023/07/12 09:21:23;;;;;;;8.07;2.38;;;;;25.80;100977.00;;;;5109394;28;20190;-79
2023/07/12 09:23:53;;;;;;;4.93;2.13;;;;;25.90;100970.00;;;;5084574;28;20222;-76
2023/07/12 09:26:29;;;;;;;7.28;2.22;;;;;25.90;100974.00;;;;5087608;28;20655;-78
2023/07/12 09:29:05;;;;;;;2.90;1.58;;;;;26.00;100964.00;;;;5082637;28;20223;-79
2023/07/12 09:31:35;;;;;;;4.13;2.17;;;;;26.00;100970.00;;;;5090365;28;20209;-79
2023/07/12 09:34:08;;;;;;;3.47;1.55;;;;;26.00;100974.00;;;;5088306;28;20230;-78
2023/07/12 09:36:40;;;;;;;3.88;2.10;;;;;26.00;100976.00;;;;5086960;28;20206;-79
2023/07/12 09:39:11;;;;;;;5.55;2.05;;;;;26.10;100987.00;;;;5090963;28;20201;-79
2023/07/12 09:41:56;;;;;;;2.63;1.15;;;;;26.10;100987.00;;;;5085974;28;20191;-78
2023/07/12 09:44:23;;;;;;;1.42;1.30;;;;;26.20;100983.00;;;;5086106;28;20300;-78
2023/07/12 09:46:54;;;;;;;5.78;1.48;;;;;26.20;100977.00;;;;5083968;28;20199;-78
2023/07/12 09:49:26;;;;;;;3.17;1.55;;;;;26.30;100978.00;;;;5082730;28;20205;-78
2023/07/12 09:52:03;;;;;;;5.80;1.52;;;;;26.40;100983.00;;;;5088086;28;20190;-79
2023/07/12 09:54:41;;;;;;;4.43;1.52;;;;;26.50;100983.00;;;;5101436;28;20227;-79
2023/07/12 09:57:15;;;;;;;5.57;1.77;;;;;26.60;100976.00;;;;5096515;28;20300;-79
2023/07/12 09:59:53;;;;;;;7.38;1.95;;;;;26.70;100976.00;;;;5085411;28;20224;-78
2023/07/12 10:02:28;;;;;;;2.75;1.52;;;;;26.80;100980.00;;;;5082539;28;20204;-78
2023/07/12 10:05:00;;;;;;;5.43;1.73;;;;;26.90;100986.00;;;;5089438;28;20198;-78
2023/07/12 10:07:49;;;;;;;2.80;1.30;;;;;26.90;100986.00;;;;5090742;28;20200;-77
2023/07/12 10:10:26;;;;;;;4.35;1.70;;;;;26.90;100975.00;;;;5075788;28;20244;-78
2023/07/12 10:13:04;;;;;;;4.03;1.50;;;;;27.00;100983.00;;;;5086130;28;20823;-79
2023/07/12 10:15:38;;;;;;;4.88;1.40;;;;;27.00;100971.00;;;;5085876;28;20202;-78
2023/07/12 10:18:06;;;;;;;3.10;1.40;;;;;27.10;100972.00;;;;5089039;28;20210;-78
2023/07/12 10:20:35;;;;;;;4.00;1.80;;;;;27.20;100971.00;;;;5087147;28;20217;-78
2023/07/12 10:23:03;;;;;;;3.45;1.40;;;;;27.30;100964.00;;;;5082429;28;20222;-79
2023/07/12 10:25:34;;;;;;;3.78;1.52;;;;;27.40;100961.00;;;;5089205;28;20750;-78
2023/07/12 10:28:10;;;;;;;3.13;1.20;;;;;27.50;100975.00;;;;5094204;28;20280;-80
2023/07/12 10:30:39;;;;;;;2.05;1.33;;;;;27.60;100963.00;;;;5087530;28;20213;-80
2023/07/12 10:33:16;;;;;;;3.25;1.13;;;;;27.60;100966.00;;;;5081964;28;20198;-82
2023/07/12 10:35:50;;;;;;;7.18;1.63;;;;;27.70;100973.00;;;;5089723;28;20214;-81
2023/07/12 10:38:21;;;;;;;5.10;1.30;;;;;27.90;100987.00;;;;5089685;28;20198;-80
2023/07/12 10:41:02;;;;;;;1.98;1.23;;;;;27.90;100984.00;;;;5097699;28;20194;-79
2023/07/12 10:43:34;;;;;;;1.90;1.08;;;;;27.90;100989.00;;;;5084976;28;20264;-79
2023/07/12 10:46:05;;;;;;;3.08;1.10;;;;;28.00;100982.00;;;;5083142;28;20194;-80
2023/07/12 10:48:33;;;;;;;1.60;1.10;;;;;28.00;100991.00;;;;5088936;28;20194;-79
2023/07/12 10:51:20;;;;;;;8.10;1.40;;;;;27.90;100986.00;;;;5089772;28;20201;-79
2023/07/12 10:53:53;;;;;;;2.80;0.80;;;;;28.00;100994.00;;;;5086754;28;20202;-79
2023/07/12 10:56:25;;;;;;;3.97;1.38;;;;;28.10;100985.00;;;;5082041;28;20210;-78
2023/07/12 10:58:56;;;;;;;3.70;1.30;;;;;28.20;100992.00;;;;5083091;28;20206;-78
2023/07/12 11:01:50;;;;;;;3.70;1.45;;;;;28.10;100989.00;;;;5082153;28;20198;-79
2023/07/12 11:04:23;;;;;;;1.90;1.50;;;;;28.30;100991.00;;;;5085150;28;20324;-78
2023/07/12 11:07:00;;;;;;;2.47;0.98;;;;;28.30;100995.00;;;;5072204;28;20209;-79
2023/07/12 11:10:16;;;;;;;2.33;1.15;;;;;28.30;101005.00;;;;5084368;28;20205;-80
2023/07/12 11:12:56;;;;;;;6.25;1.33;;;;;28.30;101012.00;;;;5086365;28;20198;-80
2023/07/12 11:15:26;;;;;;;1.58;1.08;;;;;28.40;101016.00;;;;5087478;28;20243;-79
2023/07/12 11:18:01;;;;;;;2.42;0.88;;;;;28.30;101020.00;;;;5086875;28;20218;-80
2023/07/12 11:20:30;;;;;;;2.35;0.73;;;;;28.30;101016.00;;;;5081760;28;20193;-78
2023/07/12 11:23:21;;;;;;;3.53;1.10;;;;;28.20;101013.00;;;;5088162;28;20906;-78
2023/07/12 11:26:02;;;;;;;4.05;0.88;;;;;28.10;101013.00;;;;5084706;28;20210;-80
2023/07/12 11:28:40;;;;;;;1.77;0.95;;;;;28.10;101024.00;;;;5086086;28;20202;-77
2023/07/12 11:31:19;;;;;;;2.00;0.80;;;;;28.00;101022.00;;;;5086335;28;20190;-79
2023/07/12 11:33:51;;;;;;;1.70;0.85;;;;;28.10;101020.00;;;;5084317;28;20264;-80
2023/07/12 11:36:22;;;;;;;4.85;1.17;;;;;28.00;101023.00;;;;5087381;28;20719;-77
2023/07/12 11:38:53;;;;;;;1.42;1.10;;;;;28.00;101021.00;;;;5081851;28;20735;-79
2023/07/12 11:41:24;;;;;;;2.00;1.00;;;;;28.00;101023.00;;;;5076100;28;20190;-79
2023/07/12 11:44:00;;;;;;;1.88;0.80;;;;;27.90;101027.00;;;;5087660;28;20722;-79
2023/07/12 11:46:30;;;;;;;1.23;0.80;;;;;27.90;101024.00;;;;5075963;28;20718;-79
2023/07/12 11:49:02;;;;;;;4.40;1.48;;;;;27.90;101021.00;;;;5071987;28;20190;-79
2023/07/12 11:51:35;;;;;;;1.83;0.93;;;;;28.00;101032.00;;;;5086693;28;20215;-79
2023/07/12 11:54:04;;;;;;;2.88;1.27;;;;;28.00;101037.00;;;;5087608;28;20186;-78
2023/07/12 11:56:33;;;;;;;1.80;1.05;;;;;28.00;101037.00;;;;5089269;28;20197;-79
2023/07/12 11:59:01;;;;;;;1.80;0.93;;;;;28.10;101043.00;;;;5084424;28;20194;-78
2023/07/12 12:01:28;;;;;;;2.90;1.42;;;;;28.10;101033.00;;;;5087398;28;20831;-78
2023/07/12 12:03:55;;;;;;;3.30;1.30;;;;;28.20;101037.00;;;;5076668;28;20226;-79
2023/07/12 12:06:24;;;;;;;3.45;1.33;;;;;28.20;101035.00;;;;5089512;28;20685;-79
2023/07/12 12:08:55;;;;;;;3.33;1.27;;;;;28.20;101052.00;;;;5074196;28;20194;-79
2023/07/12 12:11:22;;;;;;;2.60;1.10;;;;;28.10;101049.00;;;;5086097;28;20227;-79
2023/07/12 12:13:53;;;;;;;1.95;0.98;;;;;28.00;101050.00;;;;5082363;28;20206;-79
2023/07/12 12:16:23;;;;;;;2.83;1.17;;;;;28.00;101043.00;;;;5090273;28;20205;-79
2023/07/12 12:18:53;;;;;;;2.75;1.20;;;;;28.00;101053.00;;;;5084456;28;20210;-78
2023/07/12 12:21:22;;;;;;;2.40;1.15;;;;;28.00;101046.00;;;;5068932;28;20672;-80